Terminal Aerodrome Forecast
Issued by NWS Chicago, IL

Home | Current Version | Previous Version | Graphics & Text | Print | Product List | Glossary On
Versions: 1 2 3 4 5 6 7 8 9 10 11 12 13 14 15 16 17 18 19 20 21
000
FTUS43 KLOT 251900 AAA
TAFRFD
TAF AMD
KRFD 251942Z 2520/2618 20013G19KT P6SM FEW020 BKN200
     FM260000 18012KT P6SM BKN200
     FM261400 20010G17KT P6SM SCT020 OVC150=

USA.gov is the U.S. government's official web portal to all federal, state and local government web resources and services.